Time;durP1;ratioP1;P1;durP2;ratioP2;P2;SDS_P1;SDS_P2;PMS_P1;PMS_P2;Temp;Humidity;BMP_temperature;BMP_pressure;BME280_temperature;BME280_humidity;BME280_pressure;Samples;Min_cycle;Max_cycle;Signal;HPM_P1;HPM_P2
2022/04/24 19:28:35;;;;;;;23.95;10.88;;;;;;;10.73;100.00;98987.75;5125211;27;20398;-88
2022/04/24 19:31:04;;;;;;;23.00;11.02;;;;;;;10.67;100.00;98942.91;5090826;28;20033;-85
2022/04/24 19:33:31;;;;;;;23.10;10.60;;;;;;;10.86;100.00;98972.84;5089976;28;20036;-87
2022/04/24 19:35:57;;;;;;;22.92;10.98;;;;;;;11.17;100.00;98986.44;5073501;28;20031;-87
2022/04/24 19:38:23;;;;;;;24.02;11.18;;;;;;;10.99;100.00;98985.19;5073387;28;20028;-87
2022/04/24 19:40:50;;;;;;;30.25;11.60;;;;;;;11.14;100.00;98992.09;5073657;28;20025;-88
2022/04/24 19:43:19;;;;;;;23.67;10.25;;;;;;;10.91;100.00;98976.72;5073390;28;20024;-87
2022/04/24 19:45:47;;;;;;;25.17;10.40;;;;;;;10.99;100.00;99021.16;5089689;28;20541;-88
2022/04/24 19:51:03;;;;;;;26.33;10.70;;;;;;;10.75;100.00;99015.44;5092331;28;20036;-88
2022/04/24 19:53:34;;;;;;;26.00;10.38;;;;;;;10.95;100.00;99041.75;5090574;28;20429;-88
2022/04/24 19:56:01;;;;;;;22.02;10.57;;;;;;;10.78;100.00;98998.47;5123266;28;20024;-87
2022/04/24 19:58:28;;;;;;;27.92;11.85;;;;;;;10.79;100.00;99000.09;5089715;28;20081;-87
2022/04/24 20:00:56;;;;;;;30.85;11.00;;;;;;;10.35;100.00;98976.66;5090895;28;20039;-87
2022/04/24 20:03:22;;;;;;;27.05;12.05;;;;;;;10.50;100.00;99013.28;5071558;28;20044;-86
2022/04/24 20:05:54;;;;;;;22.50;10.80;;;;;;;10.49;100.00;99008.25;5078643;28;20059;-90
2022/04/24 20:08:22;;;;;;;19.83;10.10;;;;;;;10.31;100.00;99035.78;5083746;28;20111;-91
2022/04/24 20:10:52;;;;;;;19.48;9.85;;;;;;;9.65;100.00;98979.25;5169123;22;20291;-92
2022/04/24 20:13:21;;;;;;;20.27;10.38;;;;;;;9.94;100.00;99008.91;5027830;28;20045;-89
2022/04/24 20:15:47;;;;;;;25.83;10.88;;;;;;;9.96;100.00;98997.22;5029513;28;20442;-90
2022/04/24 20:18:18;;;;;;;26.40;10.30;;;;;;;10.44;100.00;99071.81;5028707;28;20096;-91
2022/04/24 20:20:46;;;;;;;18.25;9.23;;;;;;;10.46;100.00;99054.06;5048599;28;20495;-90
2022/04/24 20:27:30;;;;;;;15.75;8.98;;;;;;;10.47;100.00;99045.19;5043637;28;20115;-90
2022/04/24 20:29:59;;;;;;;28.33;9.70;;;;;;;10.61;100.00;99037.38;5035765;28;20395;-88
2022/04/24 20:32:28;;;;;;;21.05;9.38;;;;;;;10.18;100.00;99057.50;5041615;28;20026;-88
2022/04/24 20:34:54;;;;;;;13.82;9.25;;;;;;;9.97;100.00;99017.22;5024373;28;20033;-90
2022/04/24 20:37:58;;;;;;;;;;;;;;;;;;;;;
2022/04/24 20:43:46;;;;;;;21.43;10.50;;;;;;;9.82;100.00;98995.50;5036478;28;20030;-89
2022/04/24 20:46:15;;;;;;;16.73;9.63;;;;;;;10.07;100.00;99031.78;5049048;28;20032;-88
2022/04/24 20:48:52;;;;;;;27.27;10.55;;;;;;;10.15;100.00;99019.34;5016512;28;20029;-92
2022/04/24 20:51:22;;;;;;;23.75;10.38;;;;;;;10.59;100.00;99048.06;5023855;28;20048;-91
2022/04/24 20:53:54;;;;;;;22.27;9.27;;;;;;;10.55;100.00;99015.34;5030260;28;20032;-91
2022/04/24 20:56:25;;;;;;;25.80;10.82;;;;;;;10.49;100.00;99016.91;5021011;28;20045;-90
2022/04/24 20:58:56;;;;;;;16.17;8.98;;;;;;;10.76;100.00;99063.50;5018731;28;20038;-90
2022/04/24 21:01:22;;;;;;;20.55;8.65;;;;;;;10.82;100.00;99100.28;5017790;28;20439;-89
2022/04/24 21:03:48;;;;;;;16.92;9.15;;;;;;;10.33;100.00;99044.25;5025533;28;20026;-89
2022/04/24 21:06:15;;;;;;;16.98;8.63;;;;;;;10.32;100.00;99063.63;5023417;28;20043;-88
2022/04/24 21:08:41;;;;;;;19.00;8.55;;;;;;;10.22;100.00;99074.47;5028833;28;20900;-92
2022/04/24 21:11:09;;;;;;;18.58;9.18;;;;;;;10.07;100.00;99058.00;5012767;28;20452;-90
2022/04/24 21:13:35;;;;;;;17.48;8.35;;;;;;;9.84;100.00;99051.19;5013357;28;20049;-89
2022/04/24 21:16:01;;;;;;;18.75;9.55;;;;;;;10.18;100.00;99093.41;5011658;28;20030;-90
2022/04/24 21:18:27;;;;;;;13.35;7.30;;;;;;;9.59;100.00;99062.06;5024306;28;20045;-89
2022/04/24 21:20:54;;;;;;;22.05;8.95;;;;;;;9.44;100.00;99025.44;5016175;28;20037;-89
2022/04/24 21:23:20;;;;;;;17.50;8.00;;;;;;;9.72;100.00;99069.22;5016177;28;20381;-88
2022/04/24 21:25:46;;;;;;;21.63;7.97;;;;;;;9.39;100.00;99075.78;5012497;28;20105;-91
2022/04/24 21:28:12;;;;;;;16.02;7.22;;;;;;;9.52;100.00;99046.28;5047292;28;20037;-89
2022/04/24 21:30:38;;;;;;;17.90;6.75;;;;;;;10.06;100.00;99101.78;5008138;28;20045;-88
2022/04/24 21:33:04;;;;;;;19.85;7.97;;;;;;;10.17;100.00;99128.50;5012890;28;20029;-90
2022/04/24 21:35:30;;;;;;;17.38;7.35;;;;;;;9.42;100.00;99028.25;5012088;28;20545;-90
2022/04/24 21:37:56;;;;;;;19.27;7.28;;;;;;;9.57;100.00;99109.41;5020311;28;20052;-90
2022/04/24 21:40:22;;;;;;;17.15;6.95;;;;;;;9.05;100.00;99063.31;5049032;28;20378;-91
2022/04/24 21:42:52;;;;;;;16.02;6.70;;;;;;;9.49;100.00;99112.16;5029901;28;20403;-89
2022/04/24 21:45:24;;;;;;;16.50;6.47;;;;;;;9.21;100.00;99091.88;5010815;28;20041;-89
2022/04/24 21:47:54;;;;;;;21.48;6.88;;;;;;;9.26;100.00;99109.69;5011910;28;20108;-90
2022/04/24 21:50:23;;;;;;;13.65;6.70;;;;;;;9.17;100.00;99090.63;5013431;28;20037;-90
2022/04/24 21:52:49;;;;;;;11.23;5.85;;;;;;;9.54;100.00;99146.47;5030048;28;20040;-91
2022/04/24 21:55:15;;;;;;;15.18;6.40;;;;;;;9.37;100.00;99121.47;5031687;28;20088;-89
2022/04/24 21:57:41;;;;;;;16.70;6.45;;;;;;;9.65;100.00;99136.50;5012938;28;20093;-90
2022/04/24 22:00:09;;;;;;;12.02;6.50;;;;;;;9.60;100.00;99152.78;5030103;28;20030;-89
2022/04/24 22:05:19;;;;;;;18.63;6.40;;;;;;;9.38;100.00;99144.06;5029174;28;20540;-90
2022/04/24 22:07:48;;;;;;;14.43;7.18;;;;;;;8.91;100.00;99107.66;5009562;28;20037;-89
2022/04/24 22:10:14;;;;;;;22.48;7.03;;;;;;;9.35;100.00;99160.16;5012106;28;20044;-91
2022/04/24 22:12:40;;;;;;;15.68;6.22;;;;;;;9.07;100.00;99104.03;5017286;28;20041;-89
2022/04/24 22:15:08;;;;;;;17.55;6.65;;;;;;;9.07;100.00;99132.81;5023175;28;20116;-91
2022/04/24 22:17:42;;;;;;;14.90;6.68;;;;;;;9.09;100.00;99114.31;5030993;28;20029;-89
2022/04/24 22:31:59;;;;;;;13.95;6.13;;;;;;;8.81;100.00;99125.44;4999543;28;20038;-89
2022/04/24 22:34:27;;;;;;;13.65;5.68;;;;;;;8.81;100.00;99126.25;4992181;28;20412;-90
2022/04/24 22:36:54;;;;;;;20.17;5.75;;;;;;;8.92;100.00;99125.00;4967435;28;20065;-87
2022/04/24 22:39:22;;;;;;;12.10;5.50;;;;;;;8.94;100.00;99146.56;5006490;28;20038;-90
2022/04/24 22:41:49;;;;;;;22.88;6.20;;;;;;;8.94;100.00;99143.94;4990311;28;20038;-84
2022/04/24 22:44:16;;;;;;;17.73;6.18;;;;;;;8.95;100.00;99142.94;4975002;28;20120;-87
2022/04/24 22:46:44;;;;;;;15.90;7.13;;;;;;;8.96;100.00;99144.56;4979282;28;20066;-87
2022/04/24 22:49:10;;;;;;;17.48;6.90;;;;;;;8.92;100.00;99148.53;4971102;28;20090;-88
2022/04/24 22:51:39;;;;;;;12.82;6.50;;;;;;;8.90;100.00;99134.81;5008520;28;20372;-88
2022/04/24 22:54:06;;;;;;;18.33;6.93;;;;;;;9.35;100.00;99175.88;5032456;28;20025;-88
2022/04/24 22:56:32;;;;;;;19.33;7.32;;;;;;;9.51;100.00;99193.19;5022364;28;20061;-86
2022/04/24 22:58:59;;;;;;;16.67;7.43;;;;;;;9.50;100.00;99183.69;5022387;28;20025;-89
2022/04/24 23:01:25;;;;;;;18.35;7.80;;;;;;;9.51;100.00;99199.25;5014209;28;20044;-88
2022/04/24 23:03:54;;;;;;;24.58;8.73;;;;;;;9.37;100.00;99192.22;5003326;28;20057;-87
2022/04/24 23:06:20;;;;;;;17.75;7.55;;;;;;;9.12;100.00;99163.72;5025259;28;20053;-90
2022/04/24 23:08:46;;;;;;;22.55;7.78;;;;;;;8.95;100.00;99155.25;5024163;28;20387;-88
2022/04/24 23:11:15;;;;;;;17.35;7.50;;;;;;;9.02;100.00;99142.22;5038123;28;20025;-87
2022/04/24 23:13:43;;;;;;;14.98;6.95;;;;;;;9.32;100.00;99184.91;5006679;28;20387;-87
2022/04/24 23:16:11;;;;;;;15.30;6.22;;;;;;;9.13;100.00;99144.38;5024477;28;20032;-89
2022/04/24 23:22:07;;;;;;;16.17;6.65;;;;;;;8.99;100.00;99193.16;5033746;28;20037;-91
2022/04/24 23:24:07;;;;;;;19.48;7.03;;;;;;;9.33;100.00;99206.69;5013566;28;20492;-89
2022/04/24 23:26:33;;;;;;;12.65;7.00;;;;;;;9.14;100.00;99187.91;5047139;28;20028;-87
2022/04/24 23:28:59;;;;;;;15.07;7.07;;;;;;;9.02;100.00;99186.72;5034221;28;20045;-89
2022/04/24 23:31:25;;;;;;;23.08;7.55;;;;;;;9.00;100.00;99185.09;5028501;28;20510;-89
2022/04/24 23:33:51;;;;;;;15.95;8.65;;;;;;;9.11;100.00;99183.03;5019916;28;20148;-88
2022/04/24 23:36:17;;;;;;;15.13;8.13;;;;;;;9.16;100.00;99185.91;5025938;28;20121;-89
2022/04/24 23:38:42;;;;;;;23.92;8.55;;;;;;;9.08;100.00;99189.44;5010461;28;20068;-88
2022/04/24 23:41:08;;;;;;;19.90;8.25;;;;;;;9.07;100.00;99187.00;5024300;28;20030;-88
2022/04/24 23:43:34;;;;;;;22.00;8.68;;;;;;;9.06;100.00;99201.09;5014558;28;20029;-87
2022/04/24 23:46:00;;;;;;;17.25;7.57;;;;;;;8.82;100.00;99169.75;5024381;28;20029;-87
2022/04/24 23:48:26;;;;;;;15.45;6.88;;;;;;;8.96;100.00;99194.31;5038852;28;20092;-87
2022/04/24 23:50:52;;;;;;;18.88;7.72;;;;;;;8.89;100.00;99175.09;5020075;28;20042;-87
2022/04/24 23:53:18;;;;;;;15.10;7.13;;;;;;;8.66;100.00;99172.53;5032267;28;20438;-87
2022/04/24 23:55:44;;;;;;;14.95;7.57;;;;;;;8.83;100.00;99178.41;5036360;28;20029;-87
2022/04/24 23:58:10;;;;;;;15.45;7.10;;;;;;;8.88;100.00;99191.78;5010319;28;20060;-88
